Time;durP1;ratioP1;P1;durP2;ratioP2;P2;SDS_P1;SDS_P2;PMS_P1;PMS_P2;Temp;Humidity;BMP_temperature;BMP_pressure;BME280_temperature;BME280_humidity;BME280_pressure;Samples;Min_cycle;Max_cycle;Signal;HPM_P1;HPM_P2
2022/07/08 00:00:54;;;;;;;7.68;1.60;;;;;;;14.99;93.46;103006.03;5008079;28;20464;-49
2022/07/08 00:03:19;;;;;;;11.63;1.60;;;;;;;15.00;94.10;103005.88;4994629;28;20109;-47
2022/07/08 00:05:45;;;;;;;11.68;1.70;;;;;;;14.96;94.95;103006.31;4996266;28;20021;-49
2022/07/08 00:08:10;;;;;;;10.75;1.55;;;;;;;14.91;95.94;103010.25;4976303;28;20039;-49
2022/07/08 00:10:36;;;;;;;12.52;1.80;;;;;;;14.90;96.90;103005.00;4995710;28;20080;-47
2022/07/08 00:13:01;;;;;;;9.40;1.73;;;;;;;14.88;96.78;103007.84;4996308;28;20028;-48
2022/07/08 00:15:26;;;;;;;8.55;1.60;;;;;;;14.83;97.93;103012.75;4978047;28;20022;-49
2022/07/08 00:17:52;;;;;;;13.98;1.83;;;;;;;14.84;98.13;103008.25;4993465;28;20067;-50
2022/07/08 00:20:17;;;;;;;13.70;2.20;;;;;;;14.82;99.19;103016.47;4977981;28;20033;-49
2022/07/08 00:22:42;;;;;;;13.60;2.05;;;;;;;14.78;98.75;103012.31;4994740;28;20057;-50
2022/07/08 00:25:08;;;;;;;10.23;2.22;;;;;;;14.69;100.00;103011.31;4976736;28;20026;-47
2022/07/08 00:27:33;;;;;;;13.23;2.38;;;;;;;14.59;99.99;103009.56;4994857;28;20134;-49
2022/07/08 00:29:58;;;;;;;11.63;2.35;;;;;;;14.56;100.00;103010.63;4977892;28;20476;-48
2022/07/08 00:32:24;;;;;;;12.07;2.15;;;;;;;14.48;100.00;103003.25;4994934;28;20041;-50
2022/07/08 00:34:50;;;;;;;10.55;2.00;;;;;;;14.36;100.00;102998.97;4995493;28;20030;-48
2022/07/08 00:37:15;;;;;;;11.65;1.92;;;;;;;14.37;100.00;103003.31;4993678;28;20044;-50
2022/07/08 00:39:41;;;;;;;8.52;1.98;;;;;;;14.31;100.00;103007.41;4994496;28;20025;-51
2022/07/08 00:42:06;;;;;;;13.45;2.10;;;;;;;14.27;100.00;103010.50;4995375;28;20049;-50
2022/07/08 00:44:33;;;;;;;16.33;2.40;;;;;;;14.23;100.00;103011.75;4988737;28;20061;-49
2022/07/08 00:46:58;;;;;;;18.13;2.40;;;;;;;14.18;100.00;103007.59;4994805;28;20236;-50
2022/07/08 00:49:23;;;;;;;11.38;2.25;;;;;;;14.16;100.00;103014.94;4995380;28;20560;-51
2022/07/08 00:51:49;;;;;;;9.30;1.98;;;;;;;14.20;100.00;103012.84;4995497;28;20255;-50
2022/07/08 00:54:17;;;;;;;15.30;2.15;;;;;;;14.09;100.00;103021.84;4993142;28;20034;-49
2022/07/08 00:56:43;;;;;;;16.88;2.13;;;;;;;14.05;100.00;103019.53;4995164;28;20235;-49
2022/07/08 00:59:09;;;;;;;11.32;2.13;;;;;;;14.03;100.00;103022.34;4995001;28;20441;-50
2022/07/08 01:01:34;;;;;;;15.30;2.72;;;;;;;14.00;100.00;103017.22;4994666;28;20026;-50
2022/07/08 01:04:00;;;;;;;7.88;1.73;;;;;;;13.98;100.00;103016.53;4995539;28;20026;-46
2022/07/08 01:06:25;;;;;;;12.02;1.95;;;;;;;13.95;100.00;103017.66;4995013;28;20037;-49
2022/07/08 01:08:50;;;;;;;8.63;1.90;;;;;;;13.91;100.00;103016.19;4991138;28;20033;-48
2022/07/08 01:11:16;;;;;;;10.30;2.08;;;;;;;13.92;100.00;103020.59;4993768;28;20088;-47
2022/07/08 01:13:42;;;;;;;11.90;1.95;;;;;;;13.87;100.00;103020.13;4995606;28;20030;-49
2022/07/08 01:16:08;;;;;;;15.13;2.20;;;;;;;13.89;100.00;103022.69;4994471;28;20622;-47
2022/07/08 01:18:34;;;;;;;12.73;2.40;;;;;;;13.87;100.00;103021.97;4994611;28;20038;-49
2022/07/08 01:20:59;;;;;;;13.02;2.55;;;;;;;13.84;100.00;103023.06;4995625;28;20046;-49
2022/07/08 01:23:24;;;;;;;12.02;1.92;;;;;;;13.87;100.00;103021.97;4993359;28;20096;-49
2022/07/08 01:25:50;;;;;;;10.07;2.10;;;;;;;13.93;100.00;103025.00;4994905;28;20500;-47
2022/07/08 01:28:15;;;;;;;13.38;2.05;;;;;;;13.95;100.00;103019.47;4994018;28;20108;-50
2022/07/08 01:30:43;;;;;;;10.80;1.98;;;;;;;13.94;100.00;103021.31;4995350;28;20037;-48
2022/07/08 01:33:08;;;;;;;13.52;1.95;;;;;;;13.96;100.00;103030.06;4989482;28;20041;-50
2022/07/08 01:35:34;;;;;;;10.90;2.10;;;;;;;13.99;100.00;103007.50;4995273;28;20034;-49
2022/07/08 01:37:59;;;;;;;10.23;1.98;;;;;;;14.00;100.00;103017.22;4993881;28;20033;-50
2022/07/08 01:40:24;;;;;;;9.40;2.53;;;;;;;13.99;100.00;103010.19;4994381;28;20117;-50
2022/07/08 01:42:49;;;;;;;7.03;2.13;;;;;;;13.97;100.00;103017.53;4995203;28;20726;-48
2022/07/08 01:45:15;;;;;;;11.00;2.47;;;;;;;13.95;100.00;103016.78;4998130;28;20103;-49
2022/07/08 01:47:40;;;;;;;10.95;2.15;;;;;;;13.89;100.00;103012.78;4997650;28;20071;-48
2022/07/08 01:50:06;;;;;;;9.90;2.13;;;;;;;13.88;100.00;103010.22;4998109;28;20014;-49
2022/07/08 01:52:31;;;;;;;10.35;2.50;;;;;;;13.84;100.00;103009.63;4998216;28;20434;-47
2022/07/08 01:54:56;;;;;;;12.95;2.42;;;;;;;13.83;100.00;103010.59;4997574;28;20249;-48
2022/07/08 01:57:22;;;;;;;13.82;2.20;;;;;;;13.80;100.00;103013.56;4998702;28;20101;-48
2022/07/08 01:59:51;;;;;;;8.73;2.35;;;;;;;13.81;100.00;103009.88;4998483;28;20038;-50
2022/07/08 02:02:21;;;;;;;7.25;2.00;;;;;;;13.79;100.00;103004.66;4997358;28;20026;-48
2022/07/08 02:04:46;;;;;;;10.65;2.10;;;;;;;13.79;100.00;103004.66;4998342;28;20572;-48
2022/07/08 02:07:12;;;;;;;8.60;1.77;;;;;;;13.83;100.00;103009.75;4990614;28;20022;-48
2022/07/08 02:09:38;;;;;;;15.10;2.58;;;;;;;13.88;100.00;103011.06;4997550;28;20153;-49
2022/07/08 02:12:20;;;;;;;13.60;2.60;;;;;;;13.85;100.00;103010.47;4997934;28;20451;-47
2022/07/08 02:14:46;;;;;;;;;;;;;;;13.93;100.00;103018.75;4990338;28;20022;-49
2022/07/08 02:17:12;;;;;;;9.85;1.95;;;;;;;13.77;100.00;103011.13;4996619;28;19975;-49
2022/07/08 02:19:37;;;;;;;16.55;2.42;;;;;;;13.71;100.00;103012.47;4998027;28;20156;-48
2022/07/08 02:22:03;;;;;;;8.48;2.00;;;;;;;13.71;100.00;103022.38;4997041;28;20488;-48
2022/07/08 02:24:29;;;;;;;13.27;2.10;;;;;;;13.66;100.00;103016.53;4997814;28;20177;-50
2022/07/08 02:26:54;;;;;;;9.07;1.98;;;;;;;13.70;100.00;103012.63;4996743;28;20386;-49
2022/07/08 02:29:19;;;;;;;9.90;1.90;;;;;;;13.72;100.00;103008.84;4997585;28;20115;-49
2022/07/08 02:31:44;;;;;;;13.23;2.40;;;;;;;13.76;100.00;103012.97;4996721;28;20121;-45
2022/07/08 02:34:10;;;;;;;11.10;2.20;;;;;;;13.77;100.00;103020.03;4997218;28;20028;-48
2022/07/08 02:36:36;;;;;;;12.30;2.20;;;;;;;13.76;100.00;103023.72;4997753;28;20353;-47
2022/07/08 02:39:01;;;;;;;9.40;1.77;;;;;;;13.72;100.00;103016.88;4997195;28;20053;-46
2022/07/08 02:41:26;;;;;;;9.52;2.30;;;;;;;13.72;100.00;103026.78;4996903;28;20278;-47
2022/07/08 02:43:52;;;;;;;9.70;2.03;;;;;;;13.73;100.00;103028.47;4976220;28;20117;-50
2022/07/08 02:46:17;;;;;;;14.73;2.22;;;;;;;13.70;100.00;103018.00;4996386;28;20429;-48
2022/07/08 02:48:42;;;;;;;11.60;2.47;;;;;;;13.69;100.00;103019.81;4996459;28;20121;-49
2022/07/08 02:51:08;;;;;;;9.73;1.88;;;;;;;13.70;100.00;103013.47;4996514;28;20350;-48
2022/07/08 02:53:33;;;;;;;10.23;2.33;;;;;;;13.70;100.00;103018.84;4996235;28;20030;-48
2022/07/08 02:55:58;;;;;;;15.32;2.22;;;;;;;13.66;100.00;103022.75;4988587;28;20046;-50
2022/07/08 02:58:24;;;;;;;9.48;1.90;;;;;;;13.60;100.00;103020.59;4978855;28;20091;-48
2022/07/08 03:00:49;;;;;;;11.90;2.13;;;;;;;13.59;100.00;103016.19;4997511;28;20026;-49
2022/07/08 03:03:14;;;;;;;13.23;1.70;;;;;;;13.60;100.00;103028.66;4996251;28;20030;-49
2022/07/08 03:05:39;;;;;;;10.18;2.22;;;;;;;13.59;100.00;103027.81;4979169;28;20017;-48
2022/07/08 03:08:05;;;;;;;11.85;2.05;;;;;;;13.61;100.00;103022.28;4994360;28;20051;-47
2022/07/08 03:10:30;;;;;;;12.30;2.33;;;;;;;13.60;100.00;103017.91;4996929;28;20041;-49
2022/07/08 03:12:55;;;;;;;9.07;1.83;;;;;;;13.57;100.00;103020.84;4996484;28;20026;-47
2022/07/08 03:15:21;;;;;;;11.10;2.08;;;;;;;13.53;100.00;103017.56;4997004;28;20385;-50
2022/07/08 03:17:46;;;;;;;9.20;2.35;;;;;;;13.49;100.00;103020.63;4996802;28;20074;-49
2022/07/08 03:20:11;;;;;;;13.55;2.20;;;;;;;13.43;100.00;103017.47;4996275;28;20465;-50
2022/07/08 03:22:37;;;;;;;15.20;2.67;;;;;;;13.40;100.00;103023.09;4977872;28;20029;-49
2022/07/08 03:25:02;;;;;;;16.15;2.20;;;;;;;13.34;100.00;103026.31;4995444;28;20033;-49
2022/07/08 03:27:28;;;;;;;12.55;2.60;;;;;;;13.27;100.00;103022.34;4995932;28;20054;-51
2022/07/08 03:29:53;;;;;;;7.80;2.13;;;;;;;13.23;100.00;103027.13;4996516;28;20030;-49
2022/07/08 03:32:18;;;;;;;9.15;2.38;;;;;;;13.17;100.00;103024.97;4995439;28;20053;-50
2022/07/08 03:34:43;;;;;;;10.18;2.35;;;;;;;13.12;100.00;103028.97;4996900;28;20465;-48
2022/07/08 03:37:09;;;;;;;10.93;2.53;;;;;;;13.05;100.00;103028.63;4995005;28;20034;-50
2022/07/08 03:39:35;;;;;;;10.60;2.28;;;;;;;12.98;100.00;103033.66;4995610;28;20029;-49
2022/07/08 03:42:00;;;;;;;11.98;2.40;;;;;;;12.90;100.00;103033.41;4994956;28;20029;-49
2022/07/08 03:44:25;;;;;;;11.82;2.38;;;;;;;12.91;100.00;103034.25;4982866;28;20121;-50
2022/07/08 03:46:51;;;;;;;12.25;2.58;;;;;;;12.86;100.00;103031.94;4995366;28;20026;-48
2022/07/08 03:49:16;;;;;;;12.10;2.47;;;;;;;12.86;100.00;103030.13;4996048;28;20381;-51
2022/07/08 03:51:41;;;;;;;12.35;2.47;;;;;;;12.87;100.00;103022.91;4995328;28;20481;-51
2022/07/08 03:54:07;;;;;;;19.10;2.53;;;;;;;12.85;100.00;103031.09;4995462;28;20033;-49
2022/07/08 03:56:32;;;;;;;10.20;2.15;;;;;;;12.81;100.00;103035.00;4977969;28;20315;-48
2022/07/08 03:58:57;;;;;;;13.45;2.78;;;;;;;12.82;100.00;103031.31;4995672;28;20018;-46
2022/07/08 04:01:22;;;;;;;8.77;2.13;;;;;;;12.85;100.00;103024.88;4993412;28;20069;-49
2022/07/08 04:03:48;;;;;;;12.82;2.33;;;;;;;12.87;100.00;103028.28;4995710;28;20473;-48
2022/07/08 04:06:13;;;;;;;12.60;2.40;;;;;;;12.83;100.00;103019.63;4990363;28;20048;-49
2022/07/08 04:08:38;;;;;;;14.38;2.22;;;;;;;12.81;100.00;103029.63;4976625;28;20026;-48
2022/07/08 04:11:05;;;;;;;14.93;2.20;;;;;;;12.81;100.00;103035.00;4995670;28;20054;-50
2022/07/08 04:13:30;;;;;;;12.85;2.60;;;;;;;12.81;100.00;103032.31;4991730;28;20092;-49
2022/07/08 04:15:56;;;;;;;12.57;2.50;;;;;;;12.77;100.00;103038.03;4978471;28;20096;-50
2022/07/08 04:18:22;;;;;;;6.47;2.00;;;;;;;12.80;100.00;103037.78;4994155;28;20022;-49
2022/07/08 04:20:47;;;;;;;9.68;2.40;;;;;;;12.81;100.00;103031.44;4996075;28;20041;-49
2022/07/08 04:23:13;;;;;;;12.07;2.63;;;;;;;12.86;100.00;103034.59;4994573;28;20304;-47
2022/07/08 04:25:38;;;;;;;11.65;2.30;;;;;;;12.85;100.00;103033.75;4995328;28;20022;-47
2022/07/08 04:28:04;;;;;;;9.73;2.20;;;;;;;12.90;100.00;103030.72;4995176;28;20543;-48
2022/07/08 04:30:29;;;;;;;11.95;2.58;;;;;;;12.91;100.00;103037.78;4996177;28;20155;-45
2022/07/08 04:32:54;;;;;;;13.13;2.25;;;;;;;12.92;100.00;103034.13;4994942;28;20297;-50
2022/07/08 04:35:20;;;;;;;17.92;2.13;;;;;;;12.94;100.00;103039.38;4995704;28;20471;-49
2022/07/08 04:37:45;;;;;;;11.88;2.20;;;;;;;12.97;100.00;103037.28;4975916;28;20022;-46
2022/07/08 04:40:11;;;;;;;12.35;2.20;;;;;;;13.00;100.00;103041.53;4995433;28;20041;-46
2022/07/08 04:42:36;;;;;;;13.35;2.30;;;;;;;13.02;100.00;103043.13;4991865;28;20368;-48
2022/07/08 04:45:03;;;;;;;11.40;2.53;;;;;;;13.06;100.00;103052.63;4985451;28;20029;-48
2022/07/08 04:47:28;;;;;;;13.70;2.03;;;;;;;13.08;100.00;103055.19;4981601;28;20033;-50
2022/07/08 04:49:53;;;;;;;11.80;2.40;;;;;;;13.14;100.00;103060.09;4976539;28;20025;-50
2022/07/08 04:52:18;;;;;;;11.80;2.47;;;;;;;13.14;100.00;103062.75;4993353;28;20113;-48
2022/07/08 04:54:44;;;;;;;9.57;2.20;;;;;;;13.19;100.00;103057.88;5007715;28;20037;-47
2022/07/08 04:57:09;;;;;;;10.98;2.40;;;;;;;13.22;100.00;103067.50;5009962;28;20033;-46
2022/07/08 04:59:34;;;;;;;12.10;2.38;;;;;;;13.21;100.00;103065.81;5012014;28;20480;-50
2022/07/08 05:02:00;;;;;;;8.50;2.20;;;;;;;13.29;100.00;103078.59;5011090;28;20018;-48
2022/07/08 05:04:25;;;;;;;12.20;2.42;;;;;;;13.30;100.00;103080.31;5010214;28;20227;-50
2022/07/08 05:06:50;;;;;;;9.20;2.10;;;;;;;13.37;100.00;103082.41;5009449;28;20021;-49
2022/07/08 05:09:16;;;;;;;8.95;1.70;;;;;;;13.34;100.00;103090.72;4993135;28;20212;-46
2022/07/08 05:11:41;;;;;;;8.07;2.38;;;;;;;13.37;100.00;103094.97;5008886;28;20049;-49
2022/07/08 05:14:07;;;;;;;13.15;2.13;;;;;;;13.36;100.00;103094.13;4971399;28;20552;-50
2022/07/08 05:16:33;;;;;;;11.00;2.45;;;;;;;13.38;100.00;103085.94;4991703;28;20025;-49
2022/07/08 05:18:58;;;;;;;14.00;2.58;;;;;;;13.44;100.00;103093.47;5011327;28;20322;-48
2022/07/08 05:21:24;;;;;;;14.85;2.47;;;;;;;13.46;100.00;103083.50;5014772;28;20018;-47
2022/07/08 05:23:49;;;;;;;14.95;2.67;;;;;;;13.51;100.00;103091.16;5014713;28;20071;-51
2022/07/08 05:26:14;;;;;;;6.63;2.10;;;;;;;13.57;100.00;103098.72;5016063;28;20049;-51
2022/07/08 05:28:40;;;;;;;8.90;2.58;;;;;;;13.62;100.00;103105.41;5016302;28;20053;-46
2022/07/08 05:31:05;;;;;;;13.65;2.60;;;;;;;13.69;100.00;103108.44;5014235;28;20044;-45
2022/07/08 05:33:30;;;;;;;11.23;2.33;;;;;;;13.72;100.00;103107.34;4997540;28;20040;-50
2022/07/08 05:35:56;;;;;;;7.70;2.30;;;;;;;13.78;100.00;103102.34;5003712;28;20026;-45
2022/07/08 05:38:21;;;;;;;14.57;2.20;;;;;;;13.89;100.00;103112.19;4990006;28;20015;-49
2022/07/08 05:40:46;;;;;;;11.52;2.10;;;;;;;13.93;100.00;103110.97;5003771;28;20026;-46
2022/07/08 05:43:12;;;;;;;15.77;2.67;;;;;;;13.96;100.00;103116.06;5002498;28;20029;-47
2022/07/08 05:45:37;;;;;;;14.98;2.60;;;;;;;14.00;100.00;103111.28;5016897;28;20037;-49
2022/07/08 05:48:02;;;;;;;15.43;2.50;;;;;;;14.12;100.00;103112.94;5008543;28;20025;-44
2022/07/08 05:50:28;;;;;;;10.70;2.15;;;;;;;14.14;100.00;103102.91;5013993;28;20115;-50
2022/07/08 05:52:53;;;;;;;9.38;2.40;;;;;;;14.23;100.00;103108.50;5004760;28;20030;-50
2022/07/08 05:55:18;;;;;;;10.00;1.77;;;;;;;14.26;100.00;103114.47;4992170;28;20032;-51
2022/07/08 05:57:43;;;;;;;7.82;2.03;;;;;;;14.35;100.00;103118.22;5008876;28;20066;-50
2022/07/08 06:00:10;;;;;;;12.13;2.08;;;;;;;14.37;100.00;103124.31;4998078;28;20079;-49
2022/07/08 06:02:37;;;;;;;11.25;2.20;;;;;;;14.45;100.00;103119.13;4996539;28;20488;-49
2022/07/08 06:05:02;;;;;;;9.35;1.80;;;;;;;14.53;100.00;103124.72;4998311;28;20005;-49
2022/07/08 06:07:28;;;;;;;16.15;2.20;;;;;;;14.61;100.00;103117.84;4996944;28;20034;-49
2022/07/08 06:09:53;;;;;;;19.42;2.60;;;;;;;14.69;100.00;103115.34;4996402;28;20044;-48
2022/07/08 06:12:18;;;;;;;7.85;1.85;;;;;;;14.72;100.00;103120.47;4977853;28;20030;-49
2022/07/08 06:14:43;;;;;;;7.80;2.03;;;;;;;14.82;100.00;103124.06;4998480;28;20160;-51
2022/07/08 06:17:09;;;;;;;11.57;2.05;;;;;;;14.98;100.00;103125.41;4996750;28;20113;-47
2022/07/08 06:19:34;;;;;;;11.18;1.70;;;;;;;15.06;100.00;103134.53;4988995;28;20040;-46
2022/07/08 06:22:00;;;;;;;8.88;1.90;;;;;;;15.19;100.00;103126.22;4971085;28;20140;-50
2022/07/08 06:24:25;;;;;;;10.40;2.00;;;;;;;15.35;100.00;103130.25;4993289;28;20076;-50
2022/07/08 06:26:52;;;;;;;12.90;2.40;;;;;;;15.43;100.00;103125.88;5002832;28;20056;-51
2022/07/08 06:29:17;;;;;;;10.00;2.08;;;;;;;15.47;100.00;103127.31;4998049;28;20033;-49
2022/07/08 06:31:43;;;;;;;9.57;2.05;;;;;;;15.54;100.00;103127.59;4997620;28;20037;-48
2022/07/08 06:34:08;;;;;;;15.90;2.38;;;;;;;15.64;100.00;103125.78;4996592;28;20032;-48
2022/07/08 06:36:33;;;;;;;13.02;2.17;;;;;;;15.73;100.00;103120.56;4995760;28;20480;-49
2022/07/08 06:38:59;;;;;;;14.02;2.20;;;;;;;15.92;100.00;103127.84;4997599;28;20543;-48
2022/07/08 06:41:24;;;;;;;14.68;2.55;;;;;;;16.09;100.00;103132.56;4997072;28;20034;-48
2022/07/08 06:43:50;;;;;;;12.85;1.88;;;;;;;16.27;100.00;103124.59;4986864;28;20366;-50
2022/07/08 06:46:15;;;;;;;10.05;2.10;;;;;;;16.41;100.00;103126.84;4997582;28;20032;-50
2022/07/08 06:48:40;;;;;;;16.63;2.60;;;;;;;16.45;99.09;103123.88;4996764;28;20057;-50
2022/07/08 06:51:06;;;;;;;10.75;1.80;;;;;;;16.58;100.00;103127.09;4995655;28;20025;-51
2022/07/08 06:54:34;;;;;;;11.45;2.28;;;;;;;16.63;98.95;103129.38;4997245;28;20029;-50
2022/07/08 06:56:17;;;;;;;13.18;2.08;;;;;;;16.75;99.23;103134.47;4996793;28;20041;-50
2022/07/08 06:58:42;;;;;;;11.57;1.98;;;;;;;16.81;98.23;103126.78;4997335;28;20022;-49
2022/07/08 07:01:08;;;;;;;13.15;1.85;;;;;;;16.81;97.62;103127.63;4996601;28;20445;-48
2022/07/08 07:03:34;;;;;;;9.05;1.42;;;;;;;16.88;97.52;103119.81;4988835;28;20026;-49
2022/07/08 07:05:59;;;;;;;10.57;1.63;;;;;;;17.08;96.91;103126.00;4996178;28;20383;-48
2022/07/08 07:08:24;;;;;;;11.07;1.80;;;;;;;17.21;95.93;103129.22;5012919;28;20166;-51
2022/07/08 07:10:49;;;;;;;12.02;1.70;;;;;;;17.34;95.16;103127.03;5015936;28;20021;-49
2022/07/08 07:13:15;;;;;;;12.38;1.95;;;;;;;17.46;93.26;103127.66;4999222;28;20453;-50
2022/07/08 07:15:40;;;;;;;10.05;1.90;;;;;;;17.60;95.40;103123.59;4996927;28;20021;-50
2022/07/08 07:18:06;;;;;;;6.88;1.27;;;;;;;17.78;94.06;103134.41;4995867;28;20061;-49
2022/07/08 07:20:31;;;;;;;10.27;1.50;;;;;;;17.87;91.75;103128.16;4997008;28;20028;-50
2022/07/08 07:22:56;;;;;;;12.95;1.75;;;;;;;18.01;89.16;103136.72;4994917;28;20719;-51
2022/07/08 07:25:21;;;;;;;11.32;1.73;;;;;;;18.22;87.40;103136.41;5004212;28;20368;-50
2022/07/08 07:27:47;;;;;;;8.63;1.60;;;;;;;18.56;89.41;103133.78;5013180;28;20049;-46
2022/07/08 07:30:12;;;;;;;7.07;1.60;;;;;;;18.74;87.05;103141.03;5013654;28;20025;-47
2022/07/08 07:32:38;;;;;;;10.35;1.98;;;;;;;18.71;89.36;103134.06;5003261;28;20487;-49
2022/07/08 07:35:03;;;;;;;16.40;1.83;;;;;;;18.72;86.48;103135.78;5013386;28;20040;-46
2022/07/08 07:37:34;;;;;;;6.47;1.73;;;;;;;18.79;86.52;103141.41;5012624;28;20108;-49
2022/07/08 07:39:59;;;;;;;9.02;1.90;;;;;;;18.67;84.37;103143.53;4994853;28;20123;-49
2022/07/08 07:42:25;;;;;;;9.05;1.42;;;;;;;18.67;86.09;103135.41;4994993;28;20488;-50
2022/07/08 07:44:50;;;;;;;11.25;1.80;;;;;;;18.72;88.45;103140.31;4996749;28;20033;-44
2022/07/08 07:47:16;;;;;;;10.15;2.00;;;;;;;18.49;84.83;103138.13;5002369;28;20087;-46
2022/07/08 07:49:41;;;;;;;10.90;1.92;;;;;;;18.35;84.39;103142.25;5013235;28;20033;-44
2022/07/08 07:52:06;;;;;;;14.25;2.03;;;;;;;18.52;86.48;103137.84;5011893;28;20099;-45
2022/07/08 07:54:32;;;;;;;11.02;2.00;;;;;;;18.59;82.86;103133.47;5014344;28;20530;-49
2022/07/08 07:56:57;;;;;;;11.80;2.03;;;;;;;18.79;83.15;103139.53;5015162;28;20345;-46
2022/07/08 07:59:22;;;;;;;11.90;2.08;;;;;;;18.80;80.82;103143.94;4999382;28;20037;-49
2022/07/08 08:01:48;;;;;;;12.43;1.63;;;;;;;18.70;79.83;103134.22;4995242;28;20887;-48
2022/07/08 08:04:13;;;;;;;10.13;1.77;;;;;;;18.68;81.42;103133.53;4978269;28;20108;-50
2022/07/08 08:06:38;;;;;;;11.85;2.05;;;;;;;18.61;78.40;103136.88;4996020;28;20030;-50
2022/07/08 08:09:03;;;;;;;7.40;1.73;;;;;;;18.80;82.49;103135.84;4995702;28;20026;-49
2022/07/08 08:11:29;;;;;;;9.90;1.85;;;;;;;18.99;82.97;103136.63;4977492;28;20524;-47
2022/07/08 08:13:54;;;;;;;9.32;1.88;;;;;;;19.11;80.58;103142.59;4996502;28;20052;-50
2022/07/08 08:16:19;;;;;;;14.95;2.00;;;;;;;19.01;75.77;103134.63;5010275;28;20040;-48
2022/07/08 08:18:45;;;;;;;9.82;1.83;;;;;;;18.99;75.78;103129.38;5012365;28;21010;-49
2022/07/08 08:21:10;;;;;;;13.20;1.95;;;;;;;19.11;78.16;103134.47;5006753;28;20022;-46
2022/07/08 08:23:35;;;;;;;13.27;2.08;;;;;;;19.20;77.54;103142.50;5012548;28;20025;-49
2022/07/08 08:26:00;;;;;;;11.77;1.60;;;;;;;19.32;75.55;103151.19;5007962;28;20129;-49
2022/07/08 08:28:26;;;;;;;10.05;1.48;;;;;;;19.35;77.78;103145.44;4995013;28;20021;-49
2022/07/08 08:30:51;;;;;;;8.95;1.60;;;;;;;19.36;76.52;103138.16;5003026;28;20544;-49
2022/07/08 08:33:16;;;;;;;7.38;1.70;;;;;;;19.49;76.46;103141.25;5010772;28;20041;-48
2022/07/08 08:35:42;;;;;;;10.93;1.58;;;;;;;19.65;71.33;103148.56;5010280;28;20184;-50
2022/07/08 08:38:07;;;;;;;7.20;1.60;;;;;;;19.59;68.98;103138.41;4986795;28;20037;-50
2022/07/08 08:40:33;;;;;;;11.40;1.40;;;;;;;19.68;70.88;103140.13;5010800;28;20114;-50
2022/07/08 08:42:59;;;;;;;8.10;1.70;;;;;;;19.78;72.97;103144.59;5004189;28;20116;-51
2022/07/08 08:45:26;;;;;;;11.70;1.65;;;;;;;19.76;70.56;103144.75;5011388;28;20044;-51
2022/07/08 08:47:52;;;;;;;16.17;1.83;;;;;;;19.78;72.42;103141.88;5009132;28;20036;-49
2022/07/08 08:53:03;;;;;;;10.40;1.67;;;;;;;19.88;74.59;103134.44;4994861;28;20311;-50
2022/07/08 08:55:33;;;;;;;9.50;1.75;;;;;;;19.98;71.26;103137.84;4999405;28;20029;-50
2022/07/08 08:58:01;;;;;;;7.35;1.65;;;;;;;20.01;70.16;103132.09;4999655;28;20507;-47
2022/07/08 09:00:28;;;;;;;10.55;1.52;;;;;;;19.99;70.44;103130.53;4999263;28;20469;-46
2022/07/08 09:02:54;;;;;;;13.88;1.50;;;;;;;20.04;70.84;103134.44;4998174;28;20033;-51
2022/07/08 09:05:21;;;;;;;11.90;1.65;;;;;;;20.13;70.15;103130.72;5000064;28;20029;-45
2022/07/08 09:07:46;;;;;;;13.52;1.73;;;;;;;20.24;67.50;103121.41;4999048;28;20100;-50
2022/07/08 09:10:15;;;;;;;11.45;1.75;;;;;;;20.20;67.80;103127.34;5010891;28;20524;-49
2022/07/08 09:12:59;;;;;;;9.85;1.60;;;;;;;20.23;69.14;103121.56;4996286;28;20473;-49
2022/07/08 09:15:46;;;;;;;12.38;2.03;;;;;;;20.28;68.03;103127.31;5007780;28;20017;-50
2022/07/08 09:18:17;;;;;;;8.48;1.50;;;;;;;20.34;69.80;103120.41;5016004;28;20073;-51
2022/07/08 09:20:48;;;;;;;6.43;1.40;;;;;;;20.64;73.48;103124.28;5011851;28;20041;-49
2022/07/08 09:23:17;;;;;;;8.90;1.50;;;;;;;20.90;70.58;103121.34;4998186;28;20029;-51
2022/07/08 09:25:44;;;;;;;11.48;2.08;;;;;;;20.95;65.00;103129.81;4998450;28;20095;-51
2022/07/08 09:28:09;;;;;;;9.93;1.40;;;;;;;20.84;64.10;103117.47;4997319;28;20042;-50
2022/07/08 09:30:35;;;;;;;5.88;1.13;;;;;;;20.88;66.87;103122.53;4997910;28;20036;-50
2022/07/08 09:33:01;;;;;;;5.88;1.50;;;;;;;20.81;65.24;103122.38;4980637;28;20056;-50
2022/07/08 09:35:35;;;;;;;6.65;1.23;;;;;;;20.91;66.35;103124.88;4998704;28;20029;-50
2022/07/08 09:38:02;;;;;;;8.60;1.50;;;;;;;21.04;64.65;103122.47;4998317;28;20037;-50
2022/07/08 09:40:27;;;;;;;7.18;1.63;;;;;;;21.02;63.03;103117.22;4997425;28;20053;-52
2022/07/08 09:42:52;;;;;;;7.78;1.48;;;;;;;21.05;65.18;103122.28;5004458;28;20608;-51
2022/07/08 09:45:18;;;;;;;8.75;1.70;;;;;;;21.07;65.07;103111.25;4997441;28;20499;-50
2022/07/08 09:47:43;;;;;;;8.73;1.50;;;;;;;21.11;63.86;103115.31;4998055;28;20018;-52
2022/07/08 09:50:09;;;;;;;9.40;1.50;;;;;;;21.48;68.71;103124.69;4998045;28;20099;-51
2022/07/08 09:52:34;;;;;;;10.32;1.85;;;;;;;21.51;64.91;103121.63;4997333;28;20132;-51
2022/07/08 09:55:02;;;;;;;10.50;1.77;;;;;;;21.79;65.50;103119.25;4997328;28;20440;-49
2022/07/08 09:57:29;;;;;;;10.20;1.73;;;;;;;22.05;65.26;103122.63;4998246;28;20025;-50
2022/07/08 09:59:55;;;;;;;9.75;1.80;;;;;;;22.15;62.55;103126.78;4997358;28;20500;-52
2022/07/08 10:02:20;;;;;;;6.07;1.35;;;;;;;22.22;61.04;103128.78;4999129;28;20287;-50
2022/07/08 10:04:48;;;;;;;9.95;1.40;;;;;;;22.09;60.44;103126.66;4997879;28;20936;-51
2022/07/08 10:07:13;;;;;;;8.63;1.55;;;;;;;22.09;61.34;103121.22;4997305;28;20481;-51
2022/07/08 10:09:38;;;;;;;11.10;1.40;;;;;;;22.07;61.03;103126.00;4996874;28;20135;-51
2022/07/08 10:12:06;;;;;;;8.98;1.75;;;;;;;22.12;67.15;103129.88;4997942;28;20101;-52
2022/07/08 10:14:31;;;;;;;5.72;1.20;;;;;;;22.30;64.44;103131.44;4993673;28;20369;-51
2022/07/08 10:16:58;;;;;;;12.18;1.60;;;;;;;22.45;61.61;103135.03;4996435;28;20044;-52
2022/07/08 10:19:34;;;;;;;7.72;1.65;;;;;;;22.76;63.66;103127.75;4998214;28;20516;-52
2022/07/08 10:22:02;;;;;;;7.15;1.30;;;;;;;22.51;59.49;103134.31;4997204;28;20559;-51
2022/07/08 10:24:30;;;;;;;5.97;1.00;;;;;;;22.38;60.59;103138.72;4996886;28;20435;-51
2022/07/08 10:26:59;;;;;;;6.43;1.30;;;;;;;22.15;61.86;103140.41;5002040;28;20556;-50
2022/07/08 10:29:33;;;;;;;6.85;1.45;;;;;;;22.16;62.96;103133.06;5013425;28;20039;-50
2022/07/08 10:32:00;;;;;;;8.02;1.40;;;;;;;22.10;62.49;103131.09;4991785;28;20032;-51
2022/07/08 10:34:31;;;;;;;9.80;1.88;;;;;;;22.08;61.98;103124.97;4997760;28;20050;-51
2022/07/08 10:36:56;;;;;;;7.50;1.45;;;;;;;22.35;60.68;103124.44;4998058;28;20702;-50
2022/07/08 10:39:37;;;;;;;4.78;1.15;;;;;;;22.64;61.77;103121.94;4997078;28;20033;-51
2022/07/08 10:42:03;;;;;;;;;;;;;;;23.04;60.31;103128.81;4998364;28;20437;-50
2022/07/08 10:44:58;;;;;;;7.22;1.50;;;;;;;23.29;61.25;103123.09;4996521;28;20323;-52
2022/07/08 10:47:28;;;;;;;6.80;1.77;;;;;;;23.67;60.20;103116.59;4983172;28;20045;-50
2022/07/08 10:50:04;;;;;;;10.40;1.75;;;;;;;23.95;59.95;103120.28;4996720;28;20037;-47
2022/07/08 10:52:48;;;;;;;13.30;2.65;;;;;;;24.35;59.94;103119.75;4997707;28;20129;-50
2022/07/08 10:55:15;;;;;;;9.77;2.05;;;;;;;24.84;58.99;103107.09;5007823;28;20029;-51
2022/07/08 10:57:54;;;;;;;11.60;1.65;;;;;;;24.95;56.73;103117.47;5001340;28;20050;-48
2022/07/08 11:00:19;;;;;;;5.32;1.70;;;;;;;24.55;53.34;103117.22;5000166;28;20151;-52
2022/07/08 11:02:46;;;;;;;10.05;1.90;;;;;;;24.11;54.31;103121.88;5002017;28;20149;-51
2022/07/08 11:05:41;;;;;;;6.97;1.45;;;;;;;24.04;55.86;103122.88;5016232;28;20388;-48
2022/07/08 11:08:18;;;;;;;7.32;1.77;;;;;;;23.93;56.33;103113.31;4991038;28;20543;-52
2022/07/08 11:10:44;;;;;;;5.78;1.50;;;;;;;23.93;57.46;103121.50;4997140;28;20048;-50
2022/07/08 11:13:10;;;;;;;10.27;1.67;;;;;;;24.14;57.35;103118.75;4995778;28;20484;-52
2022/07/08 11:15:36;;;;;;;7.40;1.58;;;;;;;24.27;58.65;103112.59;4996527;28;20022;-52